Point Pleasant, NJ

9:18 AM EST on February 11, 2016 (GMT -0500)
Jersey Shore Wx Center | | Change Station
CLOSE
Current Station
Personal Weather Station
Location: Point Pleasant Beach, NJ
Elevation: 13 ft
Nearby Weather Stations

Elev 13 ft 40.09 °N, 74.05 °W | Updated 2 seconds ago

Clear
Clear
25.4 °F
Feels Like 19 °F
N
5.0
Wind Variable Wind from NW

Today
High -- | Low -- °F
--% Chance of Precip.
Yesterday
High -- | Low -- °F
Precip. -- in
Pressure 29.94 in
Visibility 10.0 miles
Clouds Scattered Clouds 6000 ft
Windchill 19 °F
Dew Point 11 °F
Humidity 53%
Rainfall 0.00 in
Snow Depth Not available.
6:54 AM 5:26 PM
Waxing Crescent, 12% visible
METAR KBLM 111415Z AUTO 28016G30KT 10SM SCT060 M04/M17 A2994 RMK AO1
Pressure 29.94 in
Visibility 10.0 miles
Clouds Scattered Clouds 6000 ft
Windchill 19 °F
Dew Point 11 °F
Humidity 53%
Rainfall 0.00 in
Snow Depth Not available.
6:54 AM 5:26 PM
Waxing Crescent, 12% visible
METAR KBLM 111415Z AUTO 28016G30KT 10SM SCT060 M04/M17 A2994 RMK AO1

10-Day Weather Forecast

Almanac

Astronomy

Feb. 11, 2016 Rise Set
Actual Time
Civil Twilight
Nautical Twilight
Astronomical Twilight
Moon
Length of Visible Light
Length of Day
Tomorrow will be .
, % of the Moon is Illuminated

Today's Extremes

State Highs State Lows

Community

WunderPhotos

Upload Photos

1,892,048 photos uploaded!

WunderBlog® & News

Nearby

Air Quality

  Air Quality AQ Index Pollutant
Not available.

Snow Depth

Station Depth Elevation

Earthquake Activity

City Distance Mag. Time & Date
Minimum magnitude displayed is 2.5.

Coastal Water Temperatures

Place Temperature

Stations

Nearby Weather Stations

Station Location Temp. Windchill Dew Point Humidity Wind Precip. Elev Updated Type
                   

Watches & Warnings

There are currently no watches in effect.